Impacts TAF Board INFO
FOR SITUATIONAL AWARENESS. NOT TO BE USED FOR FLIGHT PLANNING PURPOSES.
IDs:

KDTW - Detroit Metro/Wayne, MI, US

Issued at 0531 UTC 17 Dec 2017
Updated at 0614 UTC 17 Dec 2017
Potential Impact None Slight Moderate High
Time0553Z 17/07Z 17/08Z 17/09Z 17/10Z 17/11Z 17/12Z 17/13Z 17/14Z 17/15Z 17/16Z 17/17Z 17/18Z 17/19Z>>
Type OBS PRVL
  [TEMP]  
PRVL PRVL PRVL PRVL PRVL PRVL PRVL PRVL PRVL PRVL PRVL PRVL
VIS 10 >6 >6 >6 >6 >6 >6 >6 >6 >6 >6 >6 >6 >6
CIG -- --
  [7]  
10 10 10 10 10 10 10 10 10 10 10 10
Cover FEW SCT
  [BKN]  
OVC OVC OVC OVC OVC OVC OVC OVC OVC OVC OVC OVC
FltCat VFR VFR
  [IFR]  
MVFR MVFR MVFR MVFR MVFR MVFR MVFR MVFR MVFR MVFR MVFR MVFR
WX -- --
  [--]  
-- -- -- -- -- -- -- -- -- -- -- --
WDir 30 50
[50]
90 90 90 90 90 90 90 90 90 90 90 90
WSpd 6 7
  [7]  
5 5 5 5 5 5 5 5 5 5 5 5
WGst -- --
  [--]  
-- -- -- -- -- -- -- -- -- -- -- --

Raw TAF
KDTW 170531Z 1706/1812 05007KT P6SM SCT080
  TEMPO 1706/1708 BKN007
  FM170800 09005KT P6SM OVC010
  FM172300 18007KT 5SM BR OVC007


Raw METAR
KDTW 170553Z 03006KT 10SM FEW200 M04/M08 A3018 RMK AO2 SLP228 T10391083 11006 21039 53005
KDTW 170453Z 03006KT 10SM FEW100 M03/M07 A3017 RMK AO2 SLP224 T10331072 400331033
KDTW 170353Z 04004KT 10SM SCT100 M03/M07 A3017 RMK AO2 SLP222 T10281072

METAR Board
Radar Display
Forecast Discussion

FOR SITUATIONAL AWARENESS. NOT TO BE USED FOR FLIGHT PLANNING PURPOSES.